Terminal Aerodrome Forecast
Issued by NWS

Home | Current Version | Previous Version | Text Only | Print | Product List | Glossary On
Versions: 1 2 3 4 5 6 7 8 9 10 11 12 13 14 15 16 17 18 19 20 21 22 23 24
000
FTUS41 KOKX 030830 AAA
TAFTEB
TAF AMD
KTEB 030830Z 0309/0406 VRB04KT P6SM SCT250
     FM031400 22008KT P6SM SCT070
     FM031600 20012G20KT P6SM SCT070
     FM040000 21010KT P6SM SCT070 BKN200
     FM040400 21007KT P6SM FEW070 BKN200=

USA.gov is the U.S. government's official web portal to all federal, state and local government web resources and services.